sensor_id;sensor_type;location;lat;lon;timestamp;temperature;humidity
19755;DHT22;10036;47.812;9.274;2023-09-19T00:00:07;15.70;99.90
19755;DHT22;10036;47.812;9.274;2023-09-19T00:02:34;15.70;99.90
19755;DHT22;10036;47.812;9.274;2023-09-19T00:05:02;15.70;99.90
19755;DHT22;10036;47.812;9.274;2023-09-19T00:07:30;15.80;99.90
19755;DHT22;10036;47.812;9.274;2023-09-19T00:09:57;15.80;99.90
19755;DHT22;10036;47.812;9.274;2023-09-19T00:12:24;15.70;99.90
19755;DHT22;10036;47.812;9.274;2023-09-19T00:14:52;15.70;99.90
19755;DHT22;10036;47.812;9.274;2023-09-19T00:17:19;15.80;99.90
19755;DHT22;10036;47.812;9.274;2023-09-19T00:19:46;15.70;99.90
19755;DHT22;10036;47.812;9.274;2023-09-19T00:22:17;15.70;99.90
19755;DHT22;10036;47.812;9.274;2023-09-19T00:24:44;15.60;99.90
19755;DHT22;10036;47.812;9.274;2023-09-19T00:27:11;15.50;99.90
19755;DHT22;10036;47.812;9.274;2023-09-19T00:29:38;15.40;99.90
19755;DHT22;10036;47.812;9.274;2023-09-19T00:32:07;15.40;99.90
19755;DHT22;10036;47.812;9.274;2023-09-19T00:34:34;15.30;99.90
19755;DHT22;10036;47.812;9.274;2023-09-19T00:37:01;15.30;99.90
19755;DHT22;10036;47.812;9.274;2023-09-19T00:39:29;15.30;99.90
19755;DHT22;10036;47.812;9.274;2023-09-19T00:41:57;15.40;99.90
19755;DHT22;10036;47.812;9.274;2023-09-19T00:44:23;15.50;99.90
19755;DHT22;10036;47.812;9.274;2023-09-19T00:46:50;15.50;99.90
19755;DHT22;10036;47.812;9.274;2023-09-19T00:49:20;15.50;99.90
19755;DHT22;10036;47.812;9.274;2023-09-19T00:51:48;15.50;99.90
19755;DHT22;10036;47.812;9.274;2023-09-19T00:54:15;15.50;99.90
19755;DHT22;10036;47.812;9.274;2023-09-19T00:56:44;15.50;99.90
19755;DHT22;10036;47.812;9.274;2023-09-19T00:59:11;15.50;99.90
19755;DHT22;10036;47.812;9.274;2023-09-19T01:01:39;15.50;99.90
19755;DHT22;10036;47.812;9.274;2023-09-19T01:04:06;15.40;99.90
19755;DHT22;10036;47.812;9.274;2023-09-19T01:06:35;15.40;99.90
19755;DHT22;10036;47.812;9.274;2023-09-19T01:09:02;15.40;99.90
19755;DHT22;10036;47.812;9.274;2023-09-19T01:11:35;15.50;99.90
19755;DHT22;10036;47.812;9.274;2023-09-19T01:14:14;15.50;99.90
19755;DHT22;10036;47.812;9.274;2023-09-19T01:16:49;15.50;99.90
19755;DHT22;10036;47.812;9.274;2023-09-19T01:19:48;15.50;99.90
19755;DHT22;10036;47.812;9.274;2023-09-19T01:22:24;15.50;99.90
19755;DHT22;10036;47.812;9.274;2023-09-19T01:28:06;15.50;99.90
19755;DHT22;10036;47.812;9.274;2023-09-19T01:30:40;15.50;99.90
19755;DHT22;10036;47.812;9.274;2023-09-19T01:33:10;15.50;99.90
19755;DHT22;10036;47.812;9.274;2023-09-19T01:35:37;15.40;99.90
19755;DHT22;10036;47.812;9.274;2023-09-19T01:38:05;15.40;99.90
19755;DHT22;10036;47.812;9.274;2023-09-19T01:40:40;15.40;99.90
19755;DHT22;10036;47.812;9.274;2023-09-19T01:43:12;15.40;99.90
19755;DHT22;10036;47.812;9.274;2023-09-19T01:45:48;15.30;99.90
19755;DHT22;10036;47.812;9.274;2023-09-19T01:48:22;15.30;99.90
19755;DHT22;10036;47.812;9.274;2023-09-19T01:50:58;15.40;99.90
19755;DHT22;10036;47.812;9.274;2023-09-19T01:53:30;15.40;99.90
19755;DHT22;10036;47.812;9.274;2023-09-19T01:56:01;15.40;99.90
19755;DHT22;10036;47.812;9.274;2023-09-19T01:58:33;15.30;99.90
19755;DHT22;10036;47.812;9.274;2023-09-19T02:01:03;15.30;99.90
19755;DHT22;10036;47.812;9.274;2023-09-19T02:03:32;15.30;99.90
19755;DHT22;10036;47.812;9.274;2023-09-19T02:06:00;15.30;99.90
19755;DHT22;10036;47.812;9.274;2023-09-19T02:08:29;15.30;99.90
19755;DHT22;10036;47.812;9.274;2023-09-19T02:10:59;15.30;99.90
19755;DHT22;10036;47.812;9.274;2023-09-19T02:13:26;15.30;99.90
19755;DHT22;10036;47.812;9.274;2023-09-19T02:15:53;15.30;99.90
19755;DHT22;10036;47.812;9.274;2023-09-19T02:18:22;15.40;99.90
19755;DHT22;10036;47.812;9.274;2023-09-19T02:20:49;15.40;99.90
19755;DHT22;10036;47.812;9.274;2023-09-19T02:23:18;15.40;99.90
19755;DHT22;10036;47.812;9.274;2023-09-19T02:25:52;15.40;99.90
19755;DHT22;10036;47.812;9.274;2023-09-19T02:28:19;15.40;99.90
19755;DHT22;10036;47.812;9.274;2023-09-19T02:30:47;15.40;99.90
19755;DHT22;10036;47.812;9.274;2023-09-19T02:33:16;15.50;99.90
19755;DHT22;10036;47.812;9.274;2023-09-19T02:35:45;15.50;99.90
19755;DHT22;10036;47.812;9.274;2023-09-19T02:38:12;15.50;99.90
19755;DHT22;10036;47.812;9.274;2023-09-19T02:40:40;15.50;99.90
19755;DHT22;10036;47.812;9.274;2023-09-19T02:43:09;15.60;99.90
19755;DHT22;10036;47.812;9.274;2023-09-19T02:45:36;15.60;99.90
19755;DHT22;10036;47.812;9.274;2023-09-19T02:48:03;15.50;99.90
19755;DHT22;10036;47.812;9.274;2023-09-19T02:50:30;15.60;99.90
19755;DHT22;10036;47.812;9.274;2023-09-19T02:53:01;15.60;99.90
19755;DHT22;10036;47.812;9.274;2023-09-19T02:55:29;15.50;99.90
19755;DHT22;10036;47.812;9.274;2023-09-19T02:57:57;15.50;99.90
19755;DHT22;10036;47.812;9.274;2023-09-19T03:00:24;15.50;99.90
19755;DHT22;10036;47.812;9.274;2023-09-19T03:02:54;15.50;99.90
19755;DHT22;10036;47.812;9.274;2023-09-19T03:05:22;15.40;99.90
19755;DHT22;10036;47.812;9.274;2023-09-19T03:07:50;15.40;99.90
19755;DHT22;10036;47.812;9.274;2023-09-19T03:10:19;15.40;99.90
19755;DHT22;10036;47.812;9.274;2023-09-19T03:12:47;15.50;99.90
19755;DHT22;10036;47.812;9.274;2023-09-19T03:15:14;15.50;99.90
19755;DHT22;10036;47.812;9.274;2023-09-19T03:17:43;15.50;99.90
19755;DHT22;10036;47.812;9.274;2023-09-19T03:20:11;15.50;99.90
19755;DHT22;10036;47.812;9.274;2023-09-19T03:22:40;15.50;99.90
19755;DHT22;10036;47.812;9.274;2023-09-19T03:25:08;15.50;99.90
19755;DHT22;10036;47.812;9.274;2023-09-19T03:27:38;15.40;99.90
19755;DHT22;10036;47.812;9.274;2023-09-19T03:30:07;15.50;99.90
19755;DHT22;10036;47.812;9.274;2023-09-19T03:32:34;15.50;99.90
19755;DHT22;10036;47.812;9.274;2023-09-19T03:35:02;15.50;99.90
19755;DHT22;10036;47.812;9.274;2023-09-19T03:37:30;15.50;99.90
19755;DHT22;10036;47.812;9.274;2023-09-19T03:39:58;15.50;99.90
19755;DHT22;10036;47.812;9.274;2023-09-19T03:42:30;15.50;99.90
19755;DHT22;10036;47.812;9.274;2023-09-19T03:44:58;15.50;99.90
19755;DHT22;10036;47.812;9.274;2023-09-19T03:47:31;15.50;99.90
19755;DHT22;10036;47.812;9.274;2023-09-19T03:49:58;15.40;99.90
19755;DHT22;10036;47.812;9.274;2023-09-19T03:52:25;15.30;99.90
19755;DHT22;10036;47.812;9.274;2023-09-19T03:54:52;15.30;99.90
19755;DHT22;10036;47.812;9.274;2023-09-19T03:57:19;15.40;99.90
19755;DHT22;10036;47.812;9.274;2023-09-19T03:59:46;15.40;99.90
19755;DHT22;10036;47.812;9.274;2023-09-19T04:02:14;15.40;99.90
19755;DHT22;10036;47.812;9.274;2023-09-19T04:04:47;15.40;99.90
19755;DHT22;10036;47.812;9.274;2023-09-19T04:07:14;15.40;99.90
19755;DHT22;10036;47.812;9.274;2023-09-19T04:09:41;15.40;99.90
19755;DHT22;10036;47.812;9.274;2023-09-19T04:12:08;15.40;99.90
19755;DHT22;10036;47.812;9.274;2023-09-19T04:14:35;15.40;99.90
19755;DHT22;10036;47.812;9.274;2023-09-19T04:17:02;15.40;99.90
19755;DHT22;10036;47.812;9.274;2023-09-19T04:19:32;15.40;99.90
19755;DHT22;10036;47.812;9.274;2023-09-19T04:21:59;15.50;99.90
19755;DHT22;10036;47.812;9.274;2023-09-19T04:24:26;15.50;99.90
19755;DHT22;10036;47.812;9.274;2023-09-19T04:26:53;15.50;99.90
19755;DHT22;10036;47.812;9.274;2023-09-19T04:29:19;15.50;99.90
19755;DHT22;10036;47.812;9.274;2023-09-19T04:31:46;15.50;99.90
19755;DHT22;10036;47.812;9.274;2023-09-19T04:34:13;15.50;99.90
19755;DHT22;10036;47.812;9.274;2023-09-19T04:36:44;15.60;99.90
19755;DHT22;10036;47.812;9.274;2023-09-19T04:39:11;15.60;99.90
19755;DHT22;10036;47.812;9.274;2023-09-19T04:41:38;15.60;99.90
19755;DHT22;10036;47.812;9.274;2023-09-19T04:44:06;15.60;99.90
19755;DHT22;10036;47.812;9.274;2023-09-19T04:46:33;15.60;99.90
19755;DHT22;10036;47.812;9.274;2023-09-19T04:49:00;15.60;99.90
19755;DHT22;10036;47.812;9.274;2023-09-19T04:51:27;15.60;99.90
19755;DHT22;10036;47.812;9.274;2023-09-19T04:53:59;15.60;99.90
19755;DHT22;10036;47.812;9.274;2023-09-19T04:56:26;15.60;99.90
19755;DHT22;10036;47.812;9.274;2023-09-19T04:58:54;15.60;99.90
19755;DHT22;10036;47.812;9.274;2023-09-19T05:01:20;15.70;99.90
19755;DHT22;10036;47.812;9.274;2023-09-19T05:03:48;15.70;99.90
19755;DHT22;10036;47.812;9.274;2023-09-19T05:06:17;15.70;99.90
19755;DHT22;10036;47.812;9.274;2023-09-19T05:08:46;15.70;99.90
19755;DHT22;10036;47.812;9.274;2023-09-19T05:11:18;15.70;99.90
19755;DHT22;10036;47.812;9.274;2023-09-19T05:13:45;15.80;99.90
19755;DHT22;10036;47.812;9.274;2023-09-19T05:16:12;15.80;99.90
19755;DHT22;10036;47.812;9.274;2023-09-19T05:18:39;15.80;99.90
19755;DHT22;10036;47.812;9.274;2023-09-19T05:21:06;15.70;99.90
19755;DHT22;10036;47.812;9.274;2023-09-19T05:23:33;15.80;99.90
19755;DHT22;10036;47.812;9.274;2023-09-19T05:26:00;15.80;99.90
19755;DHT22;10036;47.812;9.274;2023-09-19T05:28:28;15.80;99.90
19755;DHT22;10036;47.812;9.274;2023-09-19T05:30:55;15.80;99.90
19755;DHT22;10036;47.812;9.274;2023-09-19T05:33:24;15.80;99.90
19755;DHT22;10036;47.812;9.274;2023-09-19T05:35:53;15.90;99.90
19755;DHT22;10036;47.812;9.274;2023-09-19T05:38:19;15.90;99.90
19755;DHT22;10036;47.812;9.274;2023-09-19T05:40:46;15.90;99.90
19755;DHT22;10036;47.812;9.274;2023-09-19T05:43:13;15.90;99.90
19755;DHT22;10036;47.812;9.274;2023-09-19T05:45:42;15.90;99.90
19755;DHT22;10036;47.812;9.274;2023-09-19T05:48:10;15.90;99.90
19755;DHT22;10036;47.812;9.274;2023-09-19T05:50:39;15.90;99.90
19755;DHT22;10036;47.812;9.274;2023-09-19T05:53:06;16.00;99.90
19755;DHT22;10036;47.812;9.274;2023-09-19T05:55:33;16.00;99.90
19755;DHT22;10036;47.812;9.274;2023-09-19T05:58:01;16.00;99.90
19755;DHT22;10036;47.812;9.274;2023-09-19T06:00:29;16.00;99.90
19755;DHT22;10036;47.812;9.274;2023-09-19T06:02:59;16.10;99.90
19755;DHT22;10036;47.812;9.274;2023-09-19T06:05:26;16.10;99.90
19755;DHT22;10036;47.812;9.274;2023-09-19T06:07:56;16.10;99.90
19755;DHT22;10036;47.812;9.274;2023-09-19T06:10:25;16.10;99.90
19755;DHT22;10036;47.812;9.274;2023-09-19T06:12:53;16.10;99.90
19755;DHT22;10036;47.812;9.274;2023-09-19T06:15:23;16.10;99.90
19755;DHT22;10036;47.812;9.274;2023-09-19T06:17:52;16.10;99.90
19755;DHT22;10036;47.812;9.274;2023-09-19T06:20:22;16.10;99.90
19755;DHT22;10036;47.812;9.274;2023-09-19T06:22:51;16.10;99.90
19755;DHT22;10036;47.812;9.274;2023-09-19T06:25:18;16.10;99.90
19755;DHT22;10036;47.812;9.274;2023-09-19T06:27:46;16.10;99.90
19755;DHT22;10036;47.812;9.274;2023-09-19T06:30:13;16.20;99.90
19755;DHT22;10036;47.812;9.274;2023-09-19T06:32:40;16.30;99.90
19755;DHT22;10036;47.812;9.274;2023-09-19T06:35:10;16.30;99.90
19755;DHT22;10036;47.812;9.274;2023-09-19T06:37:38;16.40;99.90
19755;DHT22;10036;47.812;9.274;2023-09-19T06:40:08;16.50;99.90
19755;DHT22;10036;47.812;9.274;2023-09-19T06:42:39;16.60;99.90
19755;DHT22;10036;47.812;9.274;2023-09-19T06:45:08;16.60;99.90
19755;DHT22;10036;47.812;9.274;2023-09-19T06:47:37;16.70;99.90
19755;DHT22;10036;47.812;9.274;2023-09-19T06:50:04;16.80;99.90
19755;DHT22;10036;47.812;9.274;2023-09-19T06:52:32;16.80;99.90
19755;DHT22;10036;47.812;9.274;2023-09-19T06:55:00;16.80;99.90
19755;DHT22;10036;47.812;9.274;2023-09-19T06:57:28;16.80;99.90
19755;DHT22;10036;47.812;9.274;2023-09-19T06:59:56;16.80;99.90
19755;DHT22;10036;47.812;9.274;2023-09-19T07:02:23;16.80;99.90
19755;DHT22;10036;47.812;9.274;2023-09-19T07:04:49;16.80;99.90
19755;DHT22;10036;47.812;9.274;2023-09-19T07:07:17;16.70;99.90
19755;DHT22;10036;47.812;9.274;2023-09-19T07:09:44;16.70;99.90
19755;DHT22;10036;47.812;9.274;2023-09-19T07:12:14;16.70;99.90
19755;DHT22;10036;47.812;9.274;2023-09-19T07:14:42;16.70;99.90
19755;DHT22;10036;47.812;9.274;2023-09-19T07:17:09;16.70;99.90
19755;DHT22;10036;47.812;9.274;2023-09-19T07:19:37;16.70;99.90
19755;DHT22;10036;47.812;9.274;2023-09-19T07:22:04;16.70;99.90
19755;DHT22;10036;47.812;9.274;2023-09-19T07:24:30;16.70;99.90
19755;DHT22;10036;47.812;9.274;2023-09-19T07:26:58;16.80;99.90
19755;DHT22;10036;47.812;9.274;2023-09-19T07:29:26;16.80;99.90
19755;DHT22;10036;47.812;9.274;2023-09-19T07:31:53;16.80;99.90
19755;DHT22;10036;47.812;9.274;2023-09-19T07:34:20;16.80;99.90
19755;DHT22;10036;47.812;9.274;2023-09-19T07:36:48;16.80;99.90
19755;DHT22;10036;47.812;9.274;2023-09-19T07:39:15;16.80;99.90
19755;DHT22;10036;47.812;9.274;2023-09-19T07:41:42;16.80;99.90
19755;DHT22;10036;47.812;9.274;2023-09-19T07:44:09;16.90;99.90
19755;DHT22;10036;47.812;9.274;2023-09-19T07:46:37;16.90;99.90
19755;DHT22;10036;47.812;9.274;2023-09-19T07:49:04;17.00;99.90
19755;DHT22;10036;47.812;9.274;2023-09-19T07:51:32;17.10;99.90
19755;DHT22;10036;47.812;9.274;2023-09-19T07:53:59;17.10;99.90
19755;DHT22;10036;47.812;9.274;2023-09-19T07:56:26;17.20;99.90
19755;DHT22;10036;47.812;9.274;2023-09-19T07:58:53;17.20;99.90
19755;DHT22;10036;47.812;9.274;2023-09-19T08:01:20;17.30;99.90
19755;DHT22;10036;47.812;9.274;2023-09-19T08:03:50;17.30;99.90
19755;DHT22;10036;47.812;9.274;2023-09-19T08:06:17;17.30;99.90
19755;DHT22;10036;47.812;9.274;2023-09-19T08:08:46;17.30;99.90
19755;DHT22;10036;47.812;9.274;2023-09-19T08:11:15;17.40;99.90
19755;DHT22;10036;47.812;9.274;2023-09-19T08:13:47;17.40;99.90
19755;DHT22;10036;47.812;9.274;2023-09-19T08:16:14;17.40;99.90
19755;DHT22;10036;47.812;9.274;2023-09-19T08:18:41;17.40;99.90
19755;DHT22;10036;47.812;9.274;2023-09-19T08:21:11;17.40;99.90
19755;DHT22;10036;47.812;9.274;2023-09-19T08:23:40;17.50;99.90
19755;DHT22;10036;47.812;9.274;2023-09-19T08:26:07;17.60;99.90
19755;DHT22;10036;47.812;9.274;2023-09-19T08:28:34;17.70;99.90
19755;DHT22;10036;47.812;9.274;2023-09-19T08:31:02;17.80;99.90
19755;DHT22;10036;47.812;9.274;2023-09-19T08:33:32;17.80;99.90
19755;DHT22;10036;47.812;9.274;2023-09-19T08:35:59;17.80;99.90
19755;DHT22;10036;47.812;9.274;2023-09-19T08:38:27;17.80;99.90
19755;DHT22;10036;47.812;9.274;2023-09-19T08:40:57;17.80;99.90
19755;DHT22;10036;47.812;9.274;2023-09-19T08:43:25;17.80;99.90
19755;DHT22;10036;47.812;9.274;2023-09-19T08:45:54;17.80;99.90
19755;DHT22;10036;47.812;9.274;2023-09-19T08:48:24;17.90;99.90
19755;DHT22;10036;47.812;9.274;2023-09-19T08:50:57;18.00;99.90
19755;DHT22;10036;47.812;9.274;2023-09-19T08:53:36;18.00;99.90
19755;DHT22;10036;47.812;9.274;2023-09-19T08:56:09;18.10;99.90
19755;DHT22;10036;47.812;9.274;2023-09-19T08:58:44;18.10;99.90
19755;DHT22;10036;47.812;9.274;2023-09-19T09:01:15;18.00;99.90
19755;DHT22;10036;47.812;9.274;2023-09-19T09:03:43;18.00;99.90
19755;DHT22;10036;47.812;9.274;2023-09-19T09:06:14;18.10;99.90
19755;DHT22;10036;47.812;9.274;2023-09-19T09:08:43;18.20;99.90
19755;DHT22;10036;47.812;9.274;2023-09-19T09:11:11;18.20;99.90
19755;DHT22;10036;47.812;9.274;2023-09-19T09:13:38;18.20;99.90
19755;DHT22;10036;47.812;9.274;2023-09-19T09:16:07;18.20;99.90
19755;DHT22;10036;47.812;9.274;2023-09-19T09:18:35;18.20;99.90
19755;DHT22;10036;47.812;9.274;2023-09-19T09:21:02;18.10;99.90
19755;DHT22;10036;47.812;9.274;2023-09-19T09:23:30;18.20;99.90
19755;DHT22;10036;47.812;9.274;2023-09-19T09:26:00;18.20;99.90
19755;DHT22;10036;47.812;9.274;2023-09-19T09:28:32;18.20;99.90
19755;DHT22;10036;47.812;9.274;2023-09-19T09:30:59;18.30;99.90
19755;DHT22;10036;47.812;9.274;2023-09-19T09:33:28;18.50;99.90
19755;DHT22;10036;47.812;9.274;2023-09-19T09:35:57;18.60;99.90
19755;DHT22;10036;47.812;9.274;2023-09-19T09:38:26;18.80;99.90
19755;DHT22;10036;47.812;9.274;2023-09-19T09:40:55;18.90;99.90
19755;DHT22;10036;47.812;9.274;2023-09-19T09:43:30;19.00;99.90
19755;DHT22;10036;47.812;9.274;2023-09-19T09:46:16;19.10;99.90
19755;DHT22;10036;47.812;9.274;2023-09-19T09:49:00;18.90;99.90
19755;DHT22;10036;47.812;9.274;2023-09-19T09:51:59;19.00;99.90
19755;DHT22;10036;47.812;9.274;2023-09-19T09:54:31;19.00;99.90
19755;DHT22;10036;47.812;9.274;2023-09-19T09:57:03;18.90;99.90
19755;DHT22;10036;47.812;9.274;2023-09-19T09:59:48;18.90;99.90
19755;DHT22;10036;47.812;9.274;2023-09-19T10:02:17;19.00;99.90
19755;DHT22;10036;47.812;9.274;2023-09-19T10:04:51;19.00;99.90
19755;DHT22;10036;47.812;9.274;2023-09-19T10:07:34;18.90;99.90
19755;DHT22;10036;47.812;9.274;2023-09-19T10:10:07;18.90;99.90
19755;DHT22;10036;47.812;9.274;2023-09-19T10:12:43;18.80;99.90
19755;DHT22;10036;47.812;9.274;2023-09-19T10:15:16;18.80;99.90
19755;DHT22;10036;47.812;9.274;2023-09-19T10:17:46;18.70;99.90
19755;DHT22;10036;47.812;9.274;2023-09-19T10:20:15;18.80;99.90
19755;DHT22;10036;47.812;9.274;2023-09-19T10:23:00;18.70;99.90
19755;DHT22;10036;47.812;9.274;2023-09-19T10:25:28;18.90;99.90
19755;DHT22;10036;47.812;9.274;2023-09-19T10:27:57;19.00;99.90
19755;DHT22;10036;47.812;9.274;2023-09-19T10:30:31;19.10;99.90
19755;DHT22;10036;47.812;9.274;2023-09-19T10:33:00;19.20;99.90
19755;DHT22;10036;47.812;9.274;2023-09-19T10:35:28;19.30;99.90
19755;DHT22;10036;47.812;9.274;2023-09-19T10:37:58;19.40;99.90
19755;DHT22;10036;47.812;9.274;2023-09-19T10:40:27;19.30;99.90
19755;DHT22;10036;47.812;9.274;2023-09-19T10:43:01;19.20;99.90
19755;DHT22;10036;47.812;9.274;2023-09-19T10:45:32;19.30;99.90
19755;DHT22;10036;47.812;9.274;2023-09-19T10:47:59;19.40;99.90
19755;DHT22;10036;47.812;9.274;2023-09-19T10:50:32;19.50;99.90
19755;DHT22;10036;47.812;9.274;2023-09-19T10:53:03;19.60;99.90
19755;DHT22;10036;47.812;9.274;2023-09-19T10:55:33;19.70;99.90
19755;DHT22;10036;47.812;9.274;2023-09-19T10:58:02;19.70;99.90
19755;DHT22;10036;47.812;9.274;2023-09-19T11:00:52;19.70;99.90
19755;DHT22;10036;47.812;9.274;2023-09-19T11:03:22;19.80;99.90
19755;DHT22;10036;47.812;9.274;2023-09-19T11:06:16;20.00;99.90
19755;DHT22;10036;47.812;9.274;2023-09-19T11:09:01;19.90;99.90
19755;DHT22;10036;47.812;9.274;2023-09-19T11:11:48;19.80;99.90
19755;DHT22;10036;47.812;9.274;2023-09-19T11:14:29;20.10;99.90
19755;DHT22;10036;47.812;9.274;2023-09-19T11:20:25;20.40;99.90
19755;DHT22;10036;47.812;9.274;2023-09-19T11:23:21;20.50;99.90
19755;DHT22;10036;47.812;9.274;2023-09-19T11:25:56;20.40;99.90
19755;DHT22;10036;47.812;9.274;2023-09-19T11:28:35;20.40;99.90
19755;DHT22;10036;47.812;9.274;2023-09-19T11:34:41;20.40;99.90
19755;DHT22;10036;47.812;9.274;2023-09-19T11:40:29;20.20;99.90
19755;DHT22;10036;47.812;9.274;2023-09-19T11:42:56;20.10;99.90
19755;DHT22;10036;47.812;9.274;2023-09-19T11:48:38;20.00;99.90
19755;DHT22;10036;47.812;9.274;2023-09-19T11:51:17;20.00;99.90
19755;DHT22;10036;47.812;9.274;2023-09-19T11:53:52;20.20;99.90
19755;DHT22;10036;47.812;9.274;2023-09-19T11:56:22;20.30;99.90
19755;DHT22;10036;47.812;9.274;2023-09-19T11:58:51;20.50;99.90
19755;DHT22;10036;47.812;9.274;2023-09-19T12:01:22;20.60;99.90
19755;DHT22;10036;47.812;9.274;2023-09-19T12:03:53;20.60;99.90
19755;DHT22;10036;47.812;9.274;2023-09-19T12:06:23;20.70;99.90
19755;DHT22;10036;47.812;9.274;2023-09-19T12:08:50;20.70;99.90
19755;DHT22;10036;47.812;9.274;2023-09-19T12:11:22;20.70;99.90
19755;DHT22;10036;47.812;9.274;2023-09-19T12:13:50;20.90;99.90
19755;DHT22;10036;47.812;9.274;2023-09-19T12:16:20;20.90;99.90
19755;DHT22;10036;47.812;9.274;2023-09-19T12:18:49;20.90;99.90
19755;DHT22;10036;47.812;9.274;2023-09-19T12:21:27;20.80;99.90
19755;DHT22;10036;47.812;9.274;2023-09-19T12:24:07;21.00;99.90
19755;DHT22;10036;47.812;9.274;2023-09-19T12:26:52;21.20;99.90
19755;DHT22;10036;47.812;9.274;2023-09-19T12:29:20;21.10;99.90
19755;DHT22;10036;47.812;9.274;2023-09-19T12:31:52;21.20;99.90
19755;DHT22;10036;47.812;9.274;2023-09-19T12:34:22;21.10;99.90
19755;DHT22;10036;47.812;9.274;2023-09-19T12:37:04;21.30;99.90
19755;DHT22;10036;47.812;9.274;2023-09-19T12:39:37;21.40;99.90
19755;DHT22;10036;47.812;9.274;2023-09-19T12:42:05;21.30;99.90
19755;DHT22;10036;47.812;9.274;2023-09-19T12:44:35;21.30;99.90
19755;DHT22;10036;47.812;9.274;2023-09-19T12:47:09;21.30;99.90
19755;DHT22;10036;47.812;9.274;2023-09-19T12:50:04;21.40;99.90
19755;DHT22;10036;47.812;9.274;2023-09-19T12:52:23;21.40;99.90
19755;DHT22;10036;47.812;9.274;2023-09-19T12:54:51;21.50;99.90
19755;DHT22;10036;47.812;9.274;2023-09-19T12:57:24;21.40;99.90
19755;DHT22;10036;47.812;9.274;2023-09-19T12:59:52;21.40;99.90
19755;DHT22;10036;47.812;9.274;2023-09-19T13:02:19;21.60;99.90
19755;DHT22;10036;47.812;9.274;2023-09-19T13:04:52;21.90;99.90
19755;DHT22;10036;47.812;9.274;2023-09-19T13:07:40;21.90;99.90
19755;DHT22;10036;47.812;9.274;2023-09-19T13:10:09;22.00;99.90
19755;DHT22;10036;47.812;9.274;2023-09-19T13:12:38;22.20;99.90
19755;DHT22;10036;47.812;9.274;2023-09-19T13:15:08;22.20;99.90
19755;DHT22;10036;47.812;9.274;2023-09-19T13:17:45;22.20;99.90
19755;DHT22;10036;47.812;9.274;2023-09-19T13:20:24;22.10;99.90
19755;DHT22;10036;47.812;9.274;2023-09-19T13:22:53;22.30;99.90
19755;DHT22;10036;47.812;9.274;2023-09-19T13:25:24;22.20;99.90
19755;DHT22;10036;47.812;9.274;2023-09-19T13:27:54;22.20;99.90
19755;DHT22;10036;47.812;9.274;2023-09-19T13:30:22;22.40;99.90
19755;DHT22;10036;47.812;9.274;2023-09-19T13:32:51;22.40;99.90
19755;DHT22;10036;47.812;9.274;2023-09-19T13:35:18;22.20;99.90
19755;DHT22;10036;47.812;9.274;2023-09-19T13:37:47;22.10;99.90
19755;DHT22;10036;47.812;9.274;2023-09-19T13:40:15;22.30;99.90
19755;DHT22;10036;47.812;9.274;2023-09-19T13:42:42;22.20;99.90
19755;DHT22;10036;47.812;9.274;2023-09-19T13:45:11;22.00;99.90
19755;DHT22;10036;47.812;9.274;2023-09-19T13:47:41;22.10;99.90
19755;DHT22;10036;47.812;9.274;2023-09-19T13:50:09;22.10;99.90
19755;DHT22;10036;47.812;9.274;2023-09-19T13:52:36;22.10;99.90
19755;DHT22;10036;47.812;9.274;2023-09-19T13:55:04;22.30;99.90
19755;DHT22;10036;47.812;9.274;2023-09-19T13:57:32;22.40;99.90
19755;DHT22;10036;47.812;9.274;2023-09-19T13:59:59;22.60;99.90
19755;DHT22;10036;47.812;9.274;2023-09-19T14:02:27;22.70;99.90
19755;DHT22;10036;47.812;9.274;2023-09-19T14:04:54;22.50;99.90
19755;DHT22;10036;47.812;9.274;2023-09-19T14:07:21;22.50;99.90
19755;DHT22;10036;47.812;9.274;2023-09-19T14:09:48;22.30;99.90
19755;DHT22;10036;47.812;9.274;2023-09-19T14:12:15;22.30;99.90
19755;DHT22;10036;47.812;9.274;2023-09-19T14:14:42;22.40;99.90
19755;DHT22;10036;47.812;9.274;2023-09-19T14:17:10;22.50;99.90
19755;DHT22;10036;47.812;9.274;2023-09-19T14:19:40;22.60;99.90
19755;DHT22;10036;47.812;9.274;2023-09-19T14:22:09;22.70;99.90
19755;DHT22;10036;47.812;9.274;2023-09-19T14:24:36;22.80;99.90
19755;DHT22;10036;47.812;9.274;2023-09-19T14:27:04;22.40;99.90
19755;DHT22;10036;47.812;9.274;2023-09-19T14:29:32;22.60;99.90
19755;DHT22;10036;47.812;9.274;2023-09-19T14:31:59;22.50;99.90
19755;DHT22;10036;47.812;9.274;2023-09-19T14:34:26;22.40;99.90
19755;DHT22;10036;47.812;9.274;2023-09-19T14:36:54;22.50;99.90
19755;DHT22;10036;47.812;9.274;2023-09-19T14:39:21;22.60;99.90
19755;DHT22;10036;47.812;9.274;2023-09-19T14:41:48;22.70;99.90
19755;DHT22;10036;47.812;9.274;2023-09-19T14:44:15;22.60;99.90
19755;DHT22;10036;47.812;9.274;2023-09-19T14:46:42;22.60;99.90
19755;DHT22;10036;47.812;9.274;2023-09-19T14:49:10;22.60;99.90
19755;DHT22;10036;47.812;9.274;2023-09-19T14:51:38;22.60;99.90
19755;DHT22;10036;47.812;9.274;2023-09-19T14:54:07;22.70;99.90
19755;DHT22;10036;47.812;9.274;2023-09-19T14:56:34;22.60;99.90
19755;DHT22;10036;47.812;9.274;2023-09-19T14:59:01;22.60;99.90
19755;DHT22;10036;47.812;9.274;2023-09-19T15:01:28;22.50;99.90
19755;DHT22;10036;47.812;9.274;2023-09-19T15:03:55;22.30;99.90
19755;DHT22;10036;47.812;9.274;2023-09-19T15:06:22;22.30;99.90
19755;DHT22;10036;47.812;9.274;2023-09-19T15:08:49;22.30;99.90
19755;DHT22;10036;47.812;9.274;2023-09-19T15:11:17;22.40;99.90
19755;DHT22;10036;47.812;9.274;2023-09-19T15:13:46;22.50;99.90
19755;DHT22;10036;47.812;9.274;2023-09-19T15:16:13;22.40;99.90
19755;DHT22;10036;47.812;9.274;2023-09-19T15:18:41;22.50;99.90
19755;DHT22;10036;47.812;9.274;2023-09-19T15:21:09;22.40;99.90
19755;DHT22;10036;47.812;9.274;2023-09-19T15:23:37;22.20;99.90
19755;DHT22;10036;47.812;9.274;2023-09-19T15:26:06;22.20;99.90
19755;DHT22;10036;47.812;9.274;2023-09-19T15:28:35;22.40;99.90
19755;DHT22;10036;47.812;9.274;2023-09-19T15:31:05;22.40;99.90
19755;DHT22;10036;47.812;9.274;2023-09-19T15:33:33;22.30;99.90
19755;DHT22;10036;47.812;9.274;2023-09-19T15:36:01;22.30;99.90
19755;DHT22;10036;47.812;9.274;2023-09-19T15:38:29;22.40;99.90
19755;DHT22;10036;47.812;9.274;2023-09-19T15:40:57;22.30;99.90
19755;DHT22;10036;47.812;9.274;2023-09-19T15:43:24;22.10;99.90
19755;DHT22;10036;47.812;9.274;2023-09-19T15:45:52;22.00;99.90
19755;DHT22;10036;47.812;9.274;2023-09-19T15:48:19;22.00;99.90
19755;DHT22;10036;47.812;9.274;2023-09-19T15:50:47;22.00;99.90
19755;DHT22;10036;47.812;9.274;2023-09-19T15:53:14;22.00;99.90
19755;DHT22;10036;47.812;9.274;2023-09-19T15:55:42;22.10;99.90
19755;DHT22;10036;47.812;9.274;2023-09-19T15:58:10;21.90;99.90
19755;DHT22;10036;47.812;9.274;2023-09-19T16:00:40;21.80;99.90